Time;durP1;ratioP1;P1;durP2;ratioP2;P2;SDS_P1;SDS_P2;PMS_P1;PMS_P2;Temp;Humidity;BMP_temperature;BMP_pressure;BME280_temperature;BME280_humidity;BME280_pressure;Samples;Min_cycle;Max_cycle;Signal;HPM_P1;HPM_P2
2022/12/04 10:52:32;;;;;;;10.73;6.30;;;;;;;18.34;41.17;100898.72;5087230;27;20889;-45
2022/12/04 10:55:00;;;;;;;11.02;6.20;;;;;;;19.43;38.89;100890.19;5088889;28;20044;-47
2022/12/04 10:57:38;;;;;;;13.23;5.47;;;;;;;20.22;37.07;100894.22;5089840;28;20065;-51
2022/12/04 11:00:28;;;;;;;13.13;5.28;;;;;;;20.84;35.75;100883.72;5088201;28;20035;-45
2022/12/04 11:02:59;;;;;;;11.57;5.85;;;;;;;21.27;34.79;100891.69;5084884;28;20024;-45
2022/12/04 11:05:33;;;;;;;8.52;5.55;;;;;;;21.49;34.58;100889.59;5087930;28;20082;-46
2022/12/04 11:08:04;;;;;;;9.00;5.03;;;;;;;21.68;34.15;100891.75;5087593;28;20561;-47
2022/12/04 11:10:34;;;;;;;6.32;4.55;;;;;;;21.82;33.68;100892.06;5088072;28;20062;-46
2022/12/04 11:13:05;;;;;;;11.60;5.38;;;;;;;21.88;33.56;100890.44;5075503;28;20052;-45
2022/12/04 11:15:41;;;;;;;9.35;5.03;;;;;;;21.95;33.16;100884.47;5089065;28;20016;-45
2022/12/04 11:18:15;;;;;;;6.05;4.32;;;;;;;22.00;33.42;100875.00;5071550;28;20063;-45
2022/12/04 11:20:49;;;;;;;7.60;4.97;;;;;;;22.05;33.30;100877.69;5070418;28;20033;-45
2022/12/04 11:23:18;;;;;;;7.50;4.78;;;;;;;22.11;33.01;100885.66;5089443;28;20074;-45
2022/12/04 11:25:48;;;;;;;14.52;4.22;;;;;;;22.16;32.77;100882.28;5081140;28;20028;-47
2022/12/04 11:28:19;;;;;;;11.75;5.15;;;;;;;22.23;33.06;100890.25;5088933;28;20028;-45
2022/12/04 11:30:50;;;;;;;12.07;4.82;;;;;;;22.27;32.98;100889.44;5065803;28;20078;-46
2022/12/04 11:33:26;;;;;;;7.72;4.30;;;;;;;22.33;32.54;100893.94;5079305;28;20027;-45
2022/12/04 11:35:55;;;;;;;8.75;4.32;;;;;;;22.33;32.64;100889.56;5081459;28;20020;-47
2022/12/04 11:38:26;;;;;;;6.30;4.20;;;;;;;22.40;32.75;100898.41;5075320;28;20046;-47
2022/12/04 11:40:57;;;;;;;10.43;4.32;;;;;;;22.39;32.95;100894.94;5080004;28;20024;-45
2022/12/04 11:43:27;;;;;;;8.43;4.30;;;;;;;22.45;32.73;100891.56;5082332;28;20052;-45
2022/12/04 11:45:57;;;;;;;7.53;3.75;;;;;;;22.48;32.23;100888.13;5063840;28;20041;-46
2022/12/04 11:48:25;;;;;;;11.55;3.58;;;;;;;22.48;32.57;100888.13;5077458;28;20086;-47
2022/12/04 11:51:04;;;;;;;8.68;3.65;;;;;;;22.48;32.43;100883.78;5086140;28;20129;-46
2022/12/04 11:53:59;;;;;;;5.70;3.90;;;;;;;22.44;32.50;100887.19;5084503;28;20020;-47
2022/12/04 11:56:33;;;;;;;6.32;3.80;;;;;;;22.52;32.44;100889.94;5076311;28;20476;-45
2022/12/04 11:59:01;;;;;;;5.20;3.30;;;;;;;22.52;32.53;100882.97;5082617;28;20034;-47
2022/12/04 12:02:07;;;;;;;6.07;3.88;;;;;;;22.52;32.56;100889.94;5085449;28;20037;-46
2022/12/04 12:04:57;;;;;;;4.47;3.33;;;;;;;22.55;32.42;100890.00;5061791;28;20036;-46
2022/12/04 12:07:50;;;;;;;8.13;3.40;;;;;;;22.59;32.40;100882.25;5069557;28;20032;-46
2022/12/04 12:10:50;;;;;;;4.80;3.25;;;;;;;22.55;32.28;100880.41;5070285;28;20116;-47
2022/12/04 12:13:36;;;;;;;7.03;3.65;;;;;;;22.59;32.47;100884.84;5065675;28;20067;-51
2022/12/04 12:16:27;;;;;;;12.30;9.93;;;;;;;22.63;32.01;100883.16;5068301;28;20021;-47
2022/12/04 12:18:57;;;;;;;12.23;9.75;;;;;;;22.62;32.24;100881.41;5074337;28;20174;-45
2022/12/04 12:21:49;;;;;;;10.43;8.40;;;;;;;22.62;32.15;100878.78;5056302;28;20113;-46
2022/12/04 12:24:55;;;;;;;8.35;6.50;;;;;;;22.63;32.51;100871.84;5046993;28;20139;-46
2022/12/04 12:28:01;;;;;;;9.90;6.85;;;;;;;22.63;32.06;100877.94;5061491;28;20093;-45
2022/12/04 12:30:28;;;;;;;;;;;;;;;22.64;32.21;100881.44;5036904;28;20127;-46
2022/12/04 12:33:17;;;;;;;8.45;5.65;;;;;;;22.66;32.01;100879.75;5053596;28;19912;-46
2022/12/04 12:35:52;;;;;;;11.45;9.60;;;;;;;22.67;32.03;100878.88;5047553;28;20405;-48
2022/12/04 12:38:22;;;;;;;;;;;;;;;22.67;32.34;100881.50;5074678;28;20036;-45
2022/12/04 12:40:55;;;;;;;15.57;9.98;;;;;;;22.66;32.21;100877.13;5066728;28;19981;-46
2022/12/04 12:43:43;;;;;;;10.90;9.38;;;;;;;22.67;32.02;100874.53;5056354;28;20576;-45
2022/12/04 12:46:34;;;;;;;13.57;8.65;;;;;;;22.73;32.14;100879.88;5055052;28;20029;-45
2022/12/04 12:49:24;;;;;;;11.05;8.70;;;;;;;22.74;31.90;100883.34;5065950;28;20047;-47
2022/12/04 12:51:55;;;;;;;12.05;7.72;;;;;;;22.77;32.08;100876.44;5052328;28;20047;-47
2022/12/04 12:54:27;;;;;;;13.32;8.50;;;;;;;22.79;31.75;100875.56;5064373;28;20031;-46
2022/12/04 12:56:59;;;;;;;11.30;7.00;;;;;;;22.79;31.60;100871.25;5067510;28;20493;-45
2022/12/04 12:59:28;;;;;;;13.18;8.70;;;;;;;22.81;31.87;100869.53;5068132;28;20082;-47
2022/12/04 13:02:05;;;;;;;20.45;13.02;;;;;;;22.82;31.70;100870.41;5073118;28;20477;-46
2022/12/04 13:04:39;;;;;;;16.45;11.85;;;;;;;22.84;31.89;100872.19;5051782;28;20028;-48
2022/12/04 13:07:23;;;;;;;13.50;9.45;;;;;;;22.81;31.70;100866.03;5049034;28;20048;-46
2022/12/04 13:09:56;;;;;;;18.08;8.70;;;;;;;22.76;32.14;100864.19;5049214;28;20572;-47
2022/12/04 13:12:24;;;;;;;15.15;8.43;;;;;;;22.81;31.85;100871.25;5072081;28;20090;-45
2022/12/04 13:14:51;;;;;;;11.82;8.45;;;;;;;22.76;32.00;100876.41;5054865;28;20071;-46
2022/12/04 13:17:30;;;;;;;10.25;7.78;;;;;;;22.73;32.47;100879.88;5069501;28;20452;-45
2022/12/04 13:19:59;;;;;;;10.93;8.15;;;;;;;22.76;32.61;100874.66;5052675;28;20059;-47
2022/12/04 13:22:35;;;;;;;12.10;7.05;;;;;;;22.80;32.67;100875.63;5057927;28;20103;-46
2022/12/04 13:25:13;;;;;;;11.20;6.63;;;;;;;22.81;32.25;100877.38;5073493;28;20037;-45
2022/12/04 13:27:50;;;;;;;10.90;6.80;;;;;;;22.83;32.70;100867.84;5066337;28;20067;-47
2022/12/04 13:30:56;;;;;;;13.60;6.82;;;;;;;22.82;32.61;100875.63;5066423;28;20024;-47
2022/12/04 13:33:36;;;;;;;9.80;5.90;;;;;;;22.90;32.75;100864.44;5059951;28;20032;-45
2022/12/04 13:36:12;;;;;;;10.65;5.47;;;;;;;22.91;32.38;100878.41;5055566;28;20028;-51
2022/12/04 13:38:52;;;;;;;7.53;5.15;;;;;;;22.93;32.52;100876.69;5048084;28;20029;-47
2022/12/04 13:41:23;;;;;;;9.68;5.55;;;;;;;22.95;32.42;100874.97;5066467;28;20039;-46
2022/12/04 13:43:52;;;;;;;10.35;5.10;;;;;;;22.90;32.56;100872.28;5055132;28;20058;-47
2022/12/04 13:46:29;;;;;;;9.48;5.70;;;;;;;23.01;32.35;100866.34;5055198;28;20017;-47
2022/12/04 13:49:17;;;;;;;11.40;4.97;;;;;;;23.01;32.61;100871.56;5068889;28;20492;-47
2022/12/04 13:51:48;;;;;;;7.43;4.28;;;;;;;23.08;32.80;100876.06;5059153;28;20127;-45
2022/12/04 13:54:16;;;;;;;11.10;5.32;;;;;;;23.13;32.58;100876.13;5065953;28;20158;-47
2022/12/04 13:56:47;;;;;;;10.82;5.00;;;;;;;23.14;32.40;100875.25;5072544;28;20032;-45
2022/12/04 13:59:34;;;;;;;8.98;4.18;;;;;;;23.15;32.54;100877.03;5048127;28;20023;-45
2022/12/04 14:02:23;;;;;;;8.38;4.20;;;;;;;23.05;32.92;100852.44;5065600;28;20086;-45
2022/12/04 14:05:02;;;;;;;4.88;3.75;;;;;;;23.22;32.89;100884.16;5066999;28;20029;-48
2022/12/04 14:07:33;;;;;;;5.53;3.85;;;;;;;23.26;32.39;100885.94;5058953;28;20561;-47
2022/12/04 14:10:06;;;;;;;6.25;3.80;;;;;;;23.30;32.77;100881.66;5069625;28;20034;-47
2022/12/04 14:12:39;;;;;;;13.75;4.15;;;;;;;23.31;33.00;100883.41;5053367;28;20378;-45
2022/12/04 14:15:28;;;;;;;7.30;4.38;;;;;;;23.36;32.36;100881.72;5051207;28;20108;-47
2022/12/04 14:18:03;;;;;;;7.22;4.00;;;;;;;23.38;32.50;100884.38;5053353;28;20029;-46
2022/12/04 14:20:33;;;;;;;10.23;4.18;;;;;;;23.41;32.86;100884.41;5035546;28;20029;-45
2022/12/04 14:23:25;;;;;;;10.20;4.03;;;;;;;23.41;32.53;100881.81;5064538;28;20028;-46
2022/12/04 14:25:55;;;;;;;7.38;4.00;;;;;;;23.42;32.48;100886.16;5066692;28;20047;-51
2022/12/04 14:28:36;;;;;;;12.00;4.18;;;;;;;23.42;32.58;100894.00;5067067;28;20048;-45
2022/12/04 14:31:34;;;;;;;6.78;3.90;;;;;;;23.44;32.73;100895.81;5067765;28;20064;-46
2022/12/04 14:34:25;;;;;;;7.85;4.25;;;;;;;23.38;32.33;100873.91;5056742;28;20385;-45
2022/12/04 14:36:56;;;;;;;9.55;4.38;;;;;;;23.57;32.58;100907.34;5071753;28;20397;-47
2022/12/04 14:39:25;;;;;;;8.98;4.43;;;;;;;23.60;32.13;100916.97;5066786;28;20094;-47
2022/12/04 14:42:13;;;;;;;8.55;4.18;;;;;;;23.61;32.57;100918.72;5063137;28;20427;-45
2022/12/04 14:44:43;;;;;;;8.23;4.95;;;;;;;23.65;32.23;100920.53;5052782;28;20029;-46
2022/12/04 14:47:30;;;;;;;10.88;5.40;;;;;;;23.61;32.47;100913.50;5052722;28;20126;-47
2022/12/04 14:49:59;;;;;;;16.02;7.90;;;;;;;23.67;32.21;100916.19;5043598;28;20481;-46
2022/12/04 14:52:51;;;;;;;18.30;10.48;;;;;;;23.67;32.37;100924.03;5052364;28;20045;-51
2022/12/04 14:55:39;;;;;;;18.42;11.55;;;;;;;23.67;32.45;100924.03;5046093;28;20044;-46
2022/12/04 14:58:29;;;;;;;25.30;15.13;;;;;;;23.67;32.11;100921.41;5052665;28;20024;-50
2022/12/04 15:01:00;;;;;;;25.98;15.88;;;;;;;23.66;32.09;100928.41;5052905;28;20021;-46
2022/12/04 15:03:32;;;;;;;28.23;18.08;;;;;;;23.69;32.21;100930.16;5052657;28;20120;-46
2022/12/04 15:06:12;;;;;;;30.67;18.48;;;;;;;23.69;32.40;100924.94;5051444;28;20036;-46
2022/12/04 15:08:50;;;;;;;33.10;19.55;;;;;;;23.69;32.59;100938.03;5051659;28;20047;-45
2022/12/04 15:14:13;;;;;;;36.83;21.08;;;;;;;23.71;32.34;100938.94;5049083;28;20052;-46
2022/12/04 15:16:42;;;;;;;30.15;19.90;;;;;;;23.70;32.22;100929.31;5052692;28;20100;-46
2022/12/04 15:19:19;;;;;;;34.58;20.45;;;;;;;23.75;31.96;100939.84;5051618;28;20029;-46
2022/12/04 15:21:48;;;;;;;29.73;19.92;;;;;;;23.75;32.51;100942.47;5052404;28;20017;-46
2022/12/04 15:24:19;;;;;;;33.95;19.27;;;;;;;23.73;32.19;100942.47;5052506;28;20040;-46
2022/12/04 15:26:48;;;;;;;29.95;18.90;;;;;;;23.74;32.19;100953.84;5052438;28;20028;-49
2022/12/04 15:29:23;;;;;;;27.98;18.35;;;;;;;23.79;32.14;100952.13;5051243;28;20021;-47
2022/12/04 15:31:56;;;;;;;29.15;18.10;;;;;;;23.79;32.17;100957.38;5052419;28;20079;-45
2022/12/04 15:34:40;;;;;;;34.00;19.73;;;;;;;23.81;32.17;100955.66;5052100;28;20025;-45
2022/12/04 15:37:15;;;;;;;30.80;19.77;;;;;;;23.81;32.18;100956.56;5052774;28;20032;-47
2022/12/04 15:39:44;;;;;;;30.10;19.13;;;;;;;23.85;32.40;100967.06;5056457;28;20021;-49
2022/12/04 15:42:31;;;;;;;29.55;19.02;;;;;;;23.82;32.39;100963.56;5056081;28;20390;-47
2022/12/04 15:45:11;;;;;;;28.50;18.45;;;;;;;23.87;32.24;100962.72;5056069;28;20462;-45
2022/12/04 15:47:43;;;;;;;29.08;20.05;;;;;;;23.88;32.39;100973.25;5056377;28;20108;-49
2022/12/04 15:50:22;;;;;;;30.00;19.63;;;;;;;23.88;32.43;100967.09;5055538;28;20056;-48
2022/12/04 15:52:58;;;;;;;31.88;19.92;;;;;;;23.92;32.61;100972.41;5055881;28;20033;-48
2022/12/04 15:55:29;;;;;;;35.03;21.27;;;;;;;23.95;32.51;100977.69;5056158;28;20021;-47
2022/12/04 15:58:01;;;;;;;34.60;20.38;;;;;;;23.92;32.64;100972.41;5055836;28;20037;-45
2022/12/04 16:00:37;;;;;;;30.42;20.65;;;;;;;23.91;32.17;100975.88;5056018;28;20031;-46
2022/12/04 16:03:23;;;;;;;31.10;19.95;;;;;;;23.89;32.46;100979.34;5055957;28;20052;-48
2022/12/04 16:06:02;;;;;;;30.02;20.25;;;;;;;23.93;32.57;100979.41;5055065;28;20123;-47
2022/12/04 16:08:33;;;;;;;35.72;19.60;;;;;;;23.92;32.35;100980.25;5055545;28;20452;-46
2022/12/04 16:11:05;;;;;;;32.85;19.33;;;;;;;23.88;32.26;100988.97;5055575;28;20044;-46
2022/12/04 16:13:36;;;;;;;33.53;20.27;;;;;;;23.86;32.58;100989.78;5055264;28;20087;-48
2022/12/04 16:16:07;;;;;;;34.45;19.52;;;;;;;23.85;32.83;100991.53;5055695;28;20032;-47
2022/12/04 16:18:36;;;;;;;30.88;18.08;;;;;;;23.87;32.53;100996.78;5054419;28;20052;-46
2022/12/04 16:21:05;;;;;;;27.58;17.58;;;;;;;23.84;32.51;100997.63;5054097;28;20378;-45
2022/12/04 16:23:33;;;;;;;33.50;17.38;;;;;;;23.81;32.91;100997.56;5055493;28;20203;-47
2022/12/04 16:26:02;;;;;;;29.40;17.85;;;;;;;23.79;32.86;101001.91;5055332;28;20053;-46
2022/12/04 16:28:30;;;;;;;27.63;17.52;;;;;;;23.78;32.40;101008.00;5055380;28;20056;-46
2022/12/04 16:30:57;;;;;;;23.80;15.80;;;;;;;23.79;32.72;101009.75;5054905;28;20529;-48
2022/12/04 16:33:26;;;;;;;29.80;16.17;;;;;;;23.76;32.73;101010.63;5055236;28;20469;-46
2022/12/04 16:35:53;;;;;;;22.52;14.65;;;;;;;23.76;32.63;101005.38;5055374;28;20413;-46
2022/12/04 16:38:22;;;;;;;21.10;13.90;;;;;;;23.74;32.51;101019.31;5055074;28;20104;-45
2022/12/04 16:40:51;;;;;;;26.25;14.32;;;;;;;23.74;32.17;101025.41;5055170;28;20397;-46
2022/12/04 16:43:20;;;;;;;24.67;13.82;;;;;;;23.71;32.23;101022.75;5055605;28;20032;-47
2022/12/04 16:45:51;;;;;;;23.10;13.88;;;;;;;23.69;32.28;101021.84;5054578;28;20033;-48
2022/12/04 16:48:20;;;;;;;22.80;13.20;;;;;;;23.75;32.29;101021.03;5054965;28;20025;-45
2022/12/04 16:50:49;;;;;;;21.25;12.40;;;;;;;23.76;32.06;101023.72;5054657;28;20057;-50
2022/12/04 16:53:19;;;;;;;21.45;13.43;;;;;;;23.77;32.27;101024.56;5054671;28;20366;-45
2022/12/04 16:55:50;;;;;;;25.95;13.35;;;;;;;23.73;32.36;101031.50;5054839;28;20036;-50
2022/12/04 16:58:20;;;;;;;20.23;13.23;;;;;;;23.70;32.22;101028.84;5055064;28;20029;-46
2022/12/04 17:00:54;;;;;;;25.52;15.40;;;;;;;23.71;32.54;101028.00;5053287;28;20478;-46
2022/12/04 17:03:29;;;;;;;22.17;13.95;;;;;;;23.73;31.94;101034.13;5054336;28;20493;-46
2022/12/04 17:05:58;;;;;;;21.23;13.02;;;;;;;23.77;32.35;101035.94;5054536;28;20492;-48
2022/12/04 17:08:26;;;;;;;21.17;13.88;;;;;;;23.76;32.17;101042.03;5054833;28;20099;-48
2022/12/04 17:10:54;;;;;;;23.05;13.50;;;;;;;23.72;32.01;101027.13;5054062;28;20029;-45
2022/12/04 17:13:23;;;;;;;19.10;12.50;;;;;;;23.81;32.02;101044.72;5054804;28;20028;-46
2022/12/04 17:15:52;;;;;;;19.13;12.02;;;;;;;23.79;31.91;101047.34;5053089;28;20112;-45
2022/12/04 17:18:20;;;;;;;15.45;11.35;;;;;;;23.79;32.04;101049.97;5055152;28;20033;-46
2022/12/04 17:20:49;;;;;;;17.65;11.30;;;;;;;23.77;31.80;101050.78;5054174;28;20108;-46
2022/12/04 17:23:18;;;;;;;15.45;10.13;;;;;;;23.82;32.20;101057.88;5054534;28;20112;-45
2022/12/04 17:25:46;;;;;;;15.27;10.45;;;;;;;23.84;31.66;101052.63;5054207;28;20107;-45
2022/12/04 17:28:15;;;;;;;13.82;9.20;;;;;;;23.86;31.89;101056.16;5054223;28;20019;-47
2022/12/04 17:30:46;;;;;;;12.38;9.00;;;;;;;23.85;32.22;101056.13;5053939;28;20448;-47
2022/12/04 17:33:15;;;;;;;11.70;8.55;;;;;;;23.83;32.09;101058.72;5054100;28;20439;-46
2022/12/04 17:35:44;;;;;;;11.65;8.30;;;;;;;23.81;31.94;101048.25;5054037;28;20036;-46
2022/12/04 17:38:13;;;;;;;12.55;7.75;;;;;;;23.82;32.18;101057.88;5053173;28;20029;-46
2022/12/04 17:40:41;;;;;;;13.23;8.52;;;;;;;23.86;31.82;101066.66;5054070;28;20021;-46
2022/12/04 17:43:10;;;;;;;17.73;11.63;;;;;;;23.81;31.99;101055.22;5053921;28;20033;-48
2022/12/04 17:45:42;;;;;;;17.75;12.70;;;;;;;23.80;32.44;101067.44;5054052;28;20032;-46
2022/12/04 17:48:11;;;;;;;16.75;11.18;;;;;;;23.80;32.17;101064.81;5052932;28;20028;-46
2022/12/04 17:50:40;;;;;;;17.45;10.85;;;;;;;23.78;32.04;101069.16;5053551;28;20402;-46
2022/12/04 17:53:08;;;;;;;13.18;9.75;;;;;;;23.77;32.30;101070.00;5053444;28;20475;-47
2022/12/04 17:55:37;;;;;;;14.40;9.57;;;;;;;23.77;32.13;101066.47;5053608;28;20036;-46
2022/12/04 17:58:06;;;;;;;12.95;8.95;;;;;;;23.74;32.51;101062.09;5053641;28;20029;-47
2022/12/04 18:00:35;;;;;;;14.18;9.05;;;;;;;23.72;32.37;101062.94;5053055;28;20029;-46
2022/12/04 18:03:03;;;;;;;12.40;8.80;;;;;;;23.74;31.98;101061.22;5053592;28;20394;-49
2022/12/04 18:05:32;;;;;;;11.27;8.30;;;;;;;23.66;32.25;101050.63;5053490;28;20029;-47
2022/12/04 18:08:01;;;;;;;12.25;7.72;;;;;;;23.70;32.48;101068.13;5053370;28;20032;-47
2022/12/04 18:10:29;;;;;;;11.13;7.57;;;;;;;23.70;32.23;101060.28;5053429;28;20025;-47
2022/12/04 18:12:58;;;;;;;11.00;7.07;;;;;;;23.70;32.17;101064.66;5053355;28;20036;-46
2022/12/04 18:15:27;;;;;;;9.98;7.35;;;;;;;23.65;32.23;101061.97;5053401;28;20044;-49
2022/12/04 18:17:55;;;;;;;11.68;7.43;;;;;;;23.65;32.44;101067.19;5036039;28;20029;-46
2022/12/04 18:20:24;;;;;;;10.02;6.90;;;;;;;23.68;32.48;101080.31;5051954;28;20029;-48
2022/12/04 18:22:53;;;;;;;15.77;7.22;;;;;;;23.67;31.98;101079.44;5053319;28;20409;-47
2022/12/04 18:25:22;;;;;;;13.80;7.65;;;;;;;23.67;32.03;101081.16;5053409;28;20035;-47
2022/12/04 18:27:51;;;;;;;23.45;15.10;;;;;;;23.65;31.96;101077.69;5053595;28;20021;-47
2022/12/04 18:30:19;;;;;;;33.35;19.92;;;;;;;23.69;32.39;101084.69;5052038;28;20021;-46
2022/12/04 18:32:48;;;;;;;28.95;17.88;;;;;;;23.70;32.01;101096.94;5053381;28;20067;-46
2022/12/04 18:35:17;;;;;;;26.45;17.10;;;;;;;23.75;31.73;101103.16;5053122;28;20024;-46
2022/12/04 18:37:46;;;;;;;24.90;14.60;;;;;;;23.77;31.87;101113.63;5053155;28;20454;-47
2022/12/04 18:40:15;;;;;;;22.60;13.88;;;;;;;23.77;31.71;101111.91;5052861;28;20040;-47
2022/12/04 18:42:44;;;;;;;24.10;13.55;;;;;;;23.80;32.00;101113.69;5052974;28;20043;-50
2022/12/04 18:45:13;;;;;;;22.27;12.90;;;;;;;23.79;31.79;101106.69;5053134;28;20067;-50
2022/12/04 18:47:42;;;;;;;19.88;12.02;;;;;;;23.78;32.26;101111.06;5052981;28;20036;-48
2022/12/04 18:50:10;;;;;;;19.67;11.75;;;;;;;23.79;32.00;101101.44;5052603;28;20540;-48
2022/12/04 18:52:39;;;;;;;15.38;11.18;;;;;;;23.80;31.91;101117.22;5052926;28;20075;-49
2022/12/04 18:55:08;;;;;;;14.45;9.77;;;;;;;23.77;32.19;101116.25;5052513;28;20385;-50
2022/12/04 18:57:37;;;;;;;17.38;10.90;;;;;;;23.77;31.93;101118.88;5052372;28;20063;-46
2022/12/04 19:00:07;;;;;;;13.75;9.13;;;;;;;23.78;32.04;101123.25;5052891;28;20025;-46
2022/12/04 19:02:36;;;;;;;14.10;8.80;;;;;;;23.75;32.10;101123.22;5053070;28;20033;-50
2022/12/04 19:05:05;;;;;;;12.13;8.35;;;;;;;23.72;31.97;101121.44;5052926;28;20123;-48
2022/12/04 19:07:34;;;;;;;14.95;8.65;;;;;;;23.79;32.30;101130.25;5052943;28;20413;-47
2022/12/04 19:10:02;;;;;;;15.50;8.93;;;;;;;23.77;32.17;101132.88;5053082;28;20021;-49
2022/12/04 19:12:31;;;;;;;14.35;8.98;;;;;;;23.65;31.98;101109.09;5053500;28;20033;-46
2022/12/04 19:15:00;;;;;;;12.20;8.05;;;;;;;23.78;32.39;101132.03;5055085;28;20028;-49
2022/12/04 19:17:28;;;;;;;10.90;7.90;;;;;;;23.77;32.46;101122.41;5055554;28;20036;-46
2022/12/04 19:19:57;;;;;;;11.15;7.75;;;;;;;23.76;32.59;101130.22;5056645;28;20473;-47
2022/12/04 19:22:25;;;;;;;14.68;7.80;;;;;;;23.75;32.50;101142.44;5056684;28;20040;-45
2022/12/04 19:24:54;;;;;;;11.98;7.10;;;;;;;23.76;32.54;101146.81;5056660;28;20039;-51
2022/12/04 19:27:24;;;;;;;10.27;6.47;;;;;;;23.75;32.91;101146.78;5056584;28;20067;-46
2022/12/04 19:29:52;;;;;;;9.93;6.95;;;;;;;23.73;32.78;101149.38;5056652;28;20166;-47
2022/12/04 19:32:21;;;;;;;13.13;6.50;;;;;;;23.71;32.81;101143.22;5056315;28;20028;-47
2022/12/04 19:34:50;;;;;;;8.90;6.43;;;;;;;23.68;32.74;101145.78;5055862;28;20065;-47
2022/12/04 19:37:19;;;;;;;9.75;7.03;;;;;;;23.70;33.07;101156.31;5038595;28;20029;-52
2022/12/04 19:39:48;;;;;;;13.55;6.65;;;;;;;23.66;32.98;101158.00;5056287;28;20025;-46
2022/12/04 19:42:16;;;;;;;8.60;5.82;;;;;;;23.64;32.67;101152.72;5056084;28;20037;-48
2022/12/04 19:44:45;;;;;;;9.25;6.28;;;;;;;23.67;32.69;101163.25;5054582;28;20025;-47
2022/12/04 19:47:14;;;;;;;9.70;5.82;;;;;;;23.67;32.97;101167.59;5056334;28;20044;-49
2022/12/04 19:49:42;;;;;;;8.95;5.90;;;;;;;23.67;32.75;101167.59;5054826;28;20119;-49
2022/12/04 19:52:11;;;;;;;7.90;5.63;;;;;;;23.67;32.50;101176.34;5055706;28;20551;-48
2022/12/04 19:54:39;;;;;;;7.70;5.40;;;;;;;23.67;33.01;101178.06;5055890;28;20060;-48
2022/12/04 19:57:08;;;;;;;8.82;5.70;;;;;;;23.65;32.54;101185.91;5055884;28;20533;-46
2022/12/04 19:59:36;;;;;;;7.70;5.18;;;;;;;23.66;32.82;101187.69;5054995;28;20063;-49
2022/12/04 20:02:05;;;;;;;14.23;9.85;;;;;;;23.67;32.54;101191.19;5055965;28;20452;-48
2022/12/04 20:04:34;;;;;;;23.70;14.75;;;;;;;23.63;32.49;101192.88;5055147;28;20112;-46
2022/12/04 20:07:01;;;;;;;20.60;15.02;;;;;;;23.67;32.53;101192.06;5055722;28;20103;-46
2022/12/04 20:09:30;;;;;;;20.17;15.20;;;;;;;23.64;32.38;101193.75;5056035;28;20071;-47
2022/12/04 20:11:59;;;;;;;17.15;12.80;;;;;;;23.68;32.55;101198.19;5056048;28;20401;-46
2022/12/04 20:14:28;;;;;;;16.23;11.80;;;;;;;23.65;32.52;101195.53;5055759;28;20037;-46
2022/12/04 20:16:57;;;;;;;15.15;10.35;;;;;;;23.66;32.82;101195.53;5054852;28;20044;-48
2022/12/04 20:19:25;;;;;;;15.57;9.80;;;;;;;23.63;32.30;101192.88;5055578;28;20025;-51
2022/12/04 20:21:54;;;;;;;13.50;9.48;;;;;;;23.67;32.46;101192.06;5055414;28;20029;-46
2022/12/04 20:24:23;;;;;;;12.30;8.55;;;;;;;23.73;32.25;101204.38;5053941;28;20524;-49
2022/12/04 20:26:51;;;;;;;12.20;8.70;;;;;;;23.70;32.59;101201.72;5055286;28;20079;-46
2022/12/04 20:29:20;;;;;;;11.32;7.65;;;;;;;23.67;32.28;101213.03;5054039;28;20021;-46
2022/12/04 20:31:49;;;;;;;9.90;7.80;;;;;;;23.68;32.50;101221.75;5055163;28;20033;-46
2022/12/04 20:34:19;;;;;;;9.73;7.10;;;;;;;23.70;32.53;101217.44;5053913;28;20098;-47
2022/12/04 20:36:48;;;;;;;9.07;6.72;;;;;;;23.73;32.38;101219.25;5053930;28;20025;-49
2022/12/04 20:39:20;;;;;;;9.68;6.72;;;;;;;23.74;32.41;101214.03;5055636;28;20025;-47
2022/12/04 20:41:49;;;;;;;10.70;7.45;;;;;;;23.70;32.48;101222.66;5055058;28;20120;-52
2022/12/04 20:44:19;;;;;;;9.70;6.60;;;;;;;23.71;31.97;101232.28;5055155;28;20108;-46
2022/12/04 20:46:48;;;;;;;10.27;6.32;;;;;;;23.70;32.55;101227.03;5053793;28;20021;-46
2022/12/04 20:49:21;;;;;;;8.93;6.13;;;;;;;23.69;32.43;101231.38;5055063;28;20032;-47
2022/12/04 20:51:50;;;;;;;7.75;5.85;;;;;;;23.71;32.58;101224.44;5054675;28;20045;-48
2022/12/04 20:54:20;;;;;;;7.20;5.10;;;;;;;23.70;32.24;101227.03;5054906;28;20032;-46
2022/12/04 20:56:50;;;;;;;7.75;5.95;;;;;;;23.66;32.16;101216.50;5053559;28;20450;-47
2022/12/04 20:59:20;;;;;;;7.00;5.25;;;;;;;23.68;32.22;101232.22;5053667;28;20033;-46
2022/12/04 21:01:50;;;;;;;7.05;5.35;;;;;;;23.69;32.16;101236.63;5053915;28;20095;-46
2022/12/04 21:04:19;;;;;;;8.07;5.53;;;;;;;23.68;32.54;101234.84;5054792;28;20037;-48
2022/12/04 21:06:47;;;;;;;7.45;5.70;;;;;;;23.69;32.65;101223.53;5054576;28;20100;-48
2022/12/04 21:09:19;;;;;;;6.70;5.05;;;;;;;23.64;32.41;101223.44;5054933;28;20052;-46
2022/12/04 21:11:50;;;;;;;8.35;5.55;;;;;;;23.60;32.29;101226.84;5054494;28;20062;-47
2022/12/04 21:17:11;;;;;;;11.35;5.85;;;;;;;23.53;32.32;101227.59;5050960;28;20450;-46
2022/12/04 21:19:40;;;;;;;7.43;5.80;;;;;;;23.58;32.72;101228.56;5036973;28;20124;-48
2022/12/04 21:22:09;;;;;;;10.85;5.90;;;;;;;23.60;32.51;101241.69;5054284;28;20382;-47
2022/12/04 21:24:38;;;;;;;8.45;5.57;;;;;;;23.59;32.61;101251.28;5053944;28;20013;-46
2022/12/04 21:27:07;;;;;;;6.95;5.32;;;;;;;23.57;32.39;101246.88;5054048;28;20386;-46
2022/12/04 21:29:37;;;;;;;6.18;5.13;;;;;;;23.55;32.37;101254.72;5054657;28;20033;-46
2022/12/04 21:32:06;;;;;;;8.88;5.22;;;;;;;23.56;32.09;101259.09;5053940;28;20040;-48
2022/12/04 21:34:35;;;;;;;7.45;4.68;;;;;;;23.59;32.51;101256.50;5053606;28;20488;-47
2022/12/04 21:37:04;;;;;;;7.05;4.50;;;;;;;23.59;31.93;101266.97;5053614;28;20394;-51
2022/12/04 21:39:32;;;;;;;6.35;4.55;;;;;;;23.57;32.26;101270.44;5054208;28;20139;-46
2022/12/04 21:42:42;;;;;;;7.25;4.90;;;;;;;23.54;32.06;101276.50;5054173;28;20029;-45
2022/12/04 21:44:48;;;;;;;6.63;5.00;;;;;;;23.60;32.31;101270.50;5050506;28;20068;-47
2022/12/04 21:47:17;;;;;;;12.82;5.50;;;;;;;23.60;32.13;101268.75;5053833;28;20025;-47
2022/12/04 21:49:46;;;;;;;8.55;5.47;;;;;;;23.63;31.98;101270.56;5055710;28;20027;-46
2022/12/04 21:52:16;;;;;;;9.18;5.72;;;;;;;23.64;31.93;101272.34;5068756;28;20052;-46
2022/12/04 21:54:44;;;;;;;7.15;5.15;;;;;;;23.63;32.04;101268.81;5070931;28;20028;-46
2022/12/04 21:57:11;;;;;;;17.08;6.18;;;;;;;23.61;32.03;101273.13;5018862;28;20043;-46
2022/12/04 21:59:39;;;;;;;8.77;5.13;;;;;;;23.62;32.57;101276.66;4999974;28;20026;-47
2022/12/04 22:02:06;;;;;;;7.35;5.43;;;;;;;23.63;32.31;101274.06;5004515;28;20029;-51
2022/12/04 22:04:35;;;;;;;6.93;5.07;;;;;;;23.62;32.49;101269.66;5008073;28;20048;-46
2022/12/04 22:07:04;;;;;;;6.82;5.05;;;;;;;23.74;31.58;101276.03;4983577;28;20033;-47
2022/12/04 22:09:32;;;;;;;13.73;5.45;;;;;;;23.76;31.89;101282.13;4974505;28;20030;-49
2022/12/04 22:12:01;;;;;;;10.27;4.88;;;;;;;23.75;31.73;101281.28;4974473;28;20027;-46
2022/12/04 22:14:29;;;;;;;10.38;5.05;;;;;;;23.77;31.60;101289.16;4988413;28;20431;-51
2022/12/04 22:16:58;;;;;;;6.88;5.22;;;;;;;23.77;31.74;101292.66;4993761;28;20058;-46
2022/12/04 22:19:25;;;;;;;7.35;4.20;;;;;;;23.78;31.88;101306.63;4993715;28;20038;-46
2022/12/04 22:21:54;;;;;;;9.13;5.30;;;;;;;23.73;31.48;101295.22;4993761;28;20037;-48
2022/12/04 22:24:23;;;;;;;6.95;4.57;;;;;;;23.64;32.02;101291.53;4992819;28;20538;-46
2022/12/04 22:26:51;;;;;;;7.22;4.80;;;;;;;23.63;31.96;101289.78;4993381;28;20394;-49
2022/12/04 22:29:20;;;;;;;7.28;4.00;;;;;;;23.65;31.69;101287.19;4993732;28;20022;-46
2022/12/04 22:31:49;;;;;;;10.13;4.72;;;;;;;23.64;31.65;101288.06;4993789;28;20061;-52
2022/12/04 22:34:17;;;;;;;5.30;4.13;;;;;;;23.66;31.80;101296.81;4993472;28;20068;-48
2022/12/04 22:36:46;;;;;;;6.13;4.65;;;;;;;23.69;31.64;101296.00;4993694;28;20492;-48
2022/12/04 22:39:13;;;;;;;8.60;4.35;;;;;;;23.74;31.44;101291.72;5009026;28;20041;-48